Time;durP1;ratioP1;P1;durP2;ratioP2;P2;SDS_P1;SDS_P2;PMS_P1;PMS_P2;Temp;Humidity;BMP_temperature;BMP_pressure;BME280_temperature;BME280_humidity;BME280_pressure;Samples;Min_cycle;Max_cycle;Signal;HPM_P1;HPM_P2
2021/09/02 00:00:30;;;;;;;14.35;11.48;;;;;;;8.80;100.00;96709.28;1038353;28;20053;-69
2021/09/02 00:01:00;;;;;;;16.23;13.02;;;;;;;8.78;100.00;96708.69;1031040;28;20041;-68
2021/09/02 00:01:30;;;;;;;15.80;12.52;;;;;;;8.76;100.00;96717.81;1024633;28;20041;-68
2021/09/02 00:02:02;;;;;;;16.77;12.52;;;;;;;8.70;100.00;96709.84;1026775;28;20023;-69
2021/09/02 00:02:32;;;;;;;13.65;10.50;;;;;;;8.70;100.00;96709.84;1019035;28;20062;-68
2021/09/02 00:03:03;;;;;;;13.07;10.77;;;;;;;8.70;100.00;96715.06;1019057;29;20789;-68
2021/09/02 00:03:33;;;;;;;15.95;11.45;;;;;;;8.68;100.00;96709.25;1022882;28;20571;-68
2021/09/02 00:04:04;;;;;;;15.02;11.15;;;;;;;8.61;100.00;96697.31;1026890;28;20027;-68
2021/09/02 00:04:34;;;;;;;17.25;12.30;;;;;;;8.66;100.00;96711.31;1030841;28;20026;-69
2021/09/02 00:05:05;;;;;;;16.63;11.95;;;;;;;8.61;100.00;96708.56;1030596;28;20022;-68
2021/09/02 00:05:36;;;;;;;14.82;11.48;;;;;;;8.63;100.00;96705.75;1030492;28;20037;-68
2021/09/02 00:06:06;;;;;;;14.68;10.27;;;;;;;8.62;100.00;96704.97;1030774;28;20265;-69
2021/09/02 00:06:37;;;;;;;14.68;11.48;;;;;;;8.62;100.00;96712.81;1027114;28;20033;-68
2021/09/02 00:07:07;;;;;;;17.00;12.40;;;;;;;8.60;100.00;96701.75;1030501;28;20034;-68
2021/09/02 00:07:38;;;;;;;21.55;12.23;;;;;;;8.59;100.00;96702.78;1034889;28;20014;-69
2021/09/02 00:08:08;;;;;;;15.27;12.50;;;;;;;8.58;100.00;96709.03;1034933;28;20515;-68
2021/09/02 00:08:38;;;;;;;13.45;10.82;;;;;;;8.61;100.00;96705.97;1030931;28;20018;-68
2021/09/02 00:09:09;;;;;;;16.08;11.32;;;;;;;8.61;100.00;96708.56;1019143;28;20544;-68
2021/09/02 00:09:39;;;;;;;14.73;11.43;;;;;;;8.57;100.00;96693.56;1019181;28;20122;-68
2021/09/02 00:10:10;;;;;;;16.70;12.63;;;;;;;8.57;100.00;96701.41;1026596;28;20011;-68
2021/09/02 00:10:41;;;;;;;24.73;13.98;;;;;;;8.56;100.00;96699.81;1027059;28;20122;-68
2021/09/02 00:11:11;;;;;;;13.63;11.45;;;;;;;8.58;100.00;96700.38;1018404;29;20016;-68
2021/09/02 00:11:41;;;;;;;16.20;12.43;;;;;;;8.56;100.00;96705.84;1018667;29;20540;-68
2021/09/02 00:12:12;;;;;;;12.38;10.98;;;;;;;8.56;100.00;96705.84;1022784;28;20436;-68
2021/09/02 00:12:42;;;;;;;13.02;11.10;;;;;;;8.57;100.00;96698.78;1030782;28;20026;-68
2021/09/02 00:13:13;;;;;;;14.90;12.07;;;;;;;8.57;100.00;96699.59;1030566;28;20097;-68
2021/09/02 00:13:43;;;;;;;18.65;13.10;;;;;;;8.50;100.00;96685.81;1030819;28;20022;-68
2021/09/02 00:14:14;;;;;;;14.48;12.48;;;;;;;8.55;100.00;96696.41;1030783;28;20126;-69
2021/09/02 00:14:44;;;;;;;18.48;13.75;;;;;;;8.56;100.00;96703.22;1026641;28;20392;-67
2021/09/02 00:15:15;;;;;;;15.82;12.48;;;;;;;8.54;100.00;96686.97;1026895;28;20027;-68
2021/09/02 00:15:45;;;;;;;16.30;12.88;;;;;;;8.47;100.00;96686.28;1023100;28;20143;-68
2021/09/02 00:16:15;;;;;;;16.83;12.85;;;;;;;8.52;100.00;96689.03;1030749;28;20021;-69
2021/09/02 00:16:47;;;;;;;15.77;12.23;;;;;;;8.54;100.00;96692.19;1030535;28;20027;-68
2021/09/02 00:17:18;;;;;;;18.50;11.70;;;;;;;8.59;100.00;96700.16;1031064;28;20384;-68
2021/09/02 00:17:48;;;;;;;13.98;11.68;;;;;;;8.59;100.00;96689.72;1030833;28;20265;-68
2021/09/02 00:18:18;;;;;;;17.45;11.77;;;;;;;8.58;100.00;96687.31;1030265;28;20018;-68
2021/09/02 00:18:49;;;;;;;17.73;12.55;;;;;;;8.57;100.00;96694.34;1034983;28;20014;-68
2021/09/02 00:19:20;;;;;;;14.77;12.43;;;;;;;8.54;100.00;96688.78;1038830;28;20017;-69
2021/09/02 00:19:50;;;;;;;15.57;12.43;;;;;;;8.57;100.00;96689.13;1029361;28;20030;-68
2021/09/02 00:20:21;;;;;;;17.80;13.15;;;;;;;8.56;100.00;96687.53;1030773;28;20265;-68
2021/09/02 00:20:51;;;;;;;13.43;11.73;;;;;;;8.52;100.00;96683.78;1026936;28;20030;-69
2021/09/02 00:21:22;;;;;;;15.10;11.38;;;;;;;8.54;100.00;96686.16;1022092;28;20039;-66
2021/09/02 00:21:52;;;;;;;16.13;11.65;;;;;;;8.53;100.00;96688.00;1025405;28;20090;-68
2021/09/02 00:22:23;;;;;;;13.30;11.13;;;;;;;8.47;100.00;96678.41;1025851;28;20155;-67
2021/09/02 00:22:53;;;;;;;17.10;11.63;;;;;;;8.55;100.00;96685.13;1026785;28;20053;-68
2021/09/02 00:23:23;;;;;;;16.58;12.45;;;;;;;8.58;100.00;96682.84;1034162;28;20042;-66
2021/09/02 00:23:54;;;;;;;14.63;11.93;;;;;;;8.55;100.00;96677.28;1034871;28;20052;-68
2021/09/02 00:24:24;;;;;;;15.18;11.25;;;;;;;8.59;100.00;96688.91;1028160;28;20034;-66
2021/09/02 00:24:55;;;;;;;13.60;11.32;;;;;;;8.59;100.00;96687.09;1030710;28;20026;-68
2021/09/02 00:25:25;;;;;;;15.05;12.35;;;;;;;8.59;100.00;96684.47;1030817;28;20027;-69
2021/09/02 00:25:56;;;;;;;17.02;12.45;;;;;;;8.55;100.00;96672.06;1026778;28;20034;-68
2021/09/02 00:26:26;;;;;;;16.98;11.18;;;;;;;8.58;100.00;96690.72;1026377;28;20027;-68
2021/09/02 00:26:56;;;;;;;13.68;10.73;;;;;;;8.57;100.00;96681.28;1026459;28;20019;-68
2021/09/02 00:27:27;;;;;;;14.20;11.48;;;;;;;8.57;100.00;96691.75;1022592;28;20059;-69
2021/09/02 00:27:58;;;;;;;16.48;12.38;;;;;;;8.56;100.00;96681.50;1030740;28;20038;-69
2021/09/02 00:28:28;;;;;;;15.82;11.13;;;;;;;8.55;100.00;96688.56;1026117;28;20121;-69
2021/09/02 00:28:58;;;;;;;13.77;11.55;;;;;;;8.55;100.00;96691.19;1026930;28;20070;-69
2021/09/02 00:29:30;;;;;;;15.02;11.18;;;;;;;8.53;100.00;96685.38;1030832;28;20026;-68
2021/09/02 00:30:00;;;;;;;17.02;11.25;;;;;;;8.50;100.00;96681.38;1032194;28;20027;-68
2021/09/02 00:30:31;;;;;;;18.00;12.00;;;;;;;8.52;100.00;96688.19;1034401;28;20281;-68
2021/09/02 00:31:01;;;;;;;15.32;12.40;;;;;;;8.51;100.00;96684.78;1035083;28;20459;-68
2021/09/02 00:31:31;;;;;;;14.93;11.25;;;;;;;8.41;100.00;96672.25;1029907;28;20464;-70
2021/09/02 00:32:02;;;;;;;13.80;11.25;;;;;;;8.49;100.00;96689.47;1022409;28;20027;-68
2021/09/02 00:32:33;;;;;;;17.35;11.40;;;;;;;8.49;100.00;96684.25;1023334;29;20035;-68
2021/09/02 00:33:03;;;;;;;13.98;10.82;;;;;;;8.47;100.00;96681.84;1022730;28;20027;-68
2021/09/02 00:33:34;;;;;;;18.60;11.65;;;;;;;8.40;100.00;96669.88;1027439;28;20026;-68
2021/09/02 00:34:04;;;;;;;14.35;11.48;;;;;;;8.45;100.00;96678.66;1031576;28;20029;-68
2021/09/02 00:34:35;;;;;;;19.55;12.50;;;;;;;8.44;100.00;96681.47;1023638;28;20094;-68
2021/09/02 00:35:06;;;;;;;17.52;12.75;;;;;;;8.44;100.00;96681.47;1027210;28;20035;-66
2021/09/02 00:35:36;;;;;;;15.07;12.13;;;;;;;8.44;100.00;96682.28;1026730;28;20037;-68
2021/09/02 00:36:07;;;;;;;16.88;12.07;;;;;;;8.40;100.00;96672.50;1023412;29;20680;-68
2021/09/02 00:36:37;;;;;;;16.90;12.77;;;;;;;8.43;100.00;96680.69;1019594;29;20812;-68
2021/09/02 00:37:08;;;;;;;15.75;11.63;;;;;;;8.45;100.00;96677.84;1029048;28;20487;-68
2021/09/02 00:37:38;;;;;;;13.40;11.30;;;;;;;8.40;100.00;96672.50;1027547;28;20081;-68
2021/09/02 00:38:08;;;;;;;14.05;11.15;;;;;;;8.41;100.00;96671.47;1030862;28;20039;-68
2021/09/02 00:38:39;;;;;;;14.43;11.18;;;;;;;8.41;100.00;96681.94;1027018;28;20039;-68
2021/09/02 00:39:09;;;;;;;18.05;13.57;;;;;;;8.39;100.00;96673.53;1031366;28;20026;-69
2021/09/02 00:39:40;;;;;;;14.15;10.95;;;;;;;8.38;100.00;96677.16;1023409;29;20050;-68
2021/09/02 00:40:10;;;;;;;14.05;12.02;;;;;;;8.39;100.00;96676.16;1023349;29;20031;-69
2021/09/02 00:40:41;;;;;;;15.85;12.10;;;;;;;8.38;100.00;96671.91;1034590;28;20156;-68
2021/09/02 00:41:11;;;;;;;14.93;12.07;;;;;;;8.36;100.00;96669.50;1014774;29;20040;-67
2021/09/02 00:41:42;;;;;;;19.10;11.93;;;;;;;8.38;100.00;96674.53;1027442;28;20527;-68
2021/09/02 00:42:12;;;;;;;14.35;11.52;;;;;;;8.38;100.00;96666.69;1026488;28;20027;-69
2021/09/02 00:42:43;;;;;;;15.23;11.75;;;;;;;8.38;100.00;96671.91;1027445;28;20031;-68
2021/09/02 00:43:13;;;;;;;14.27;11.30;;;;;;;8.39;100.00;96673.53;1023552;29;20023;-69
2021/09/02 00:43:44;;;;;;;17.55;11.75;;;;;;;8.38;100.00;96666.69;1027238;28;20022;-67
2021/09/02 00:44:40;;;;;;;15.10;11.98;;;;;;;8.41;100.00;96668.84;1019484;29;20024;-68
2021/09/02 00:45:11;;;;;;;15.05;11.38;;;;;;;8.39;100.00;96669.09;1019337;29;20039;-68
2021/09/02 00:45:41;;;;;;;15.15;11.13;;;;;;;8.37;100.00;96665.06;1018928;29;20350;-68
2021/09/02 00:46:15;;;;;;;15.32;10.98;;;;;;;8.45;100.00;96672.59;1023331;29;20035;-68
2021/09/02 00:46:45;;;;;;;17.42;12.82;;;;;;;8.39;100.00;96668.31;1015441;29;20052;-68
2021/09/02 00:47:16;;;;;;;19.33;12.75;;;;;;;8.42;100.00;96673.09;1024079;28;20369;-69
2021/09/02 00:47:47;;;;;;;17.10;12.20;;;;;;;8.42;100.00;96678.31;1031291;28;20021;-68
2021/09/02 00:48:17;;;;;;;17.65;13.40;;;;;;;8.41;100.00;96674.09;1031432;28;20033;-68
2021/09/02 00:48:48;;;;;;;18.60;12.80;;;;;;;8.37;100.00;96673.72;1027321;28;20029;-67
2021/09/02 00:49:18;;;;;;;16.42;11.77;;;;;;;8.33;100.00;96664.72;1027245;28;20019;-68
2021/09/02 00:49:49;;;;;;;17.65;11.55;;;;;;;8.37;100.00;96678.16;1027152;28;20015;-68
2021/09/02 00:50:19;;;;;;;17.75;13.30;;;;;;;8.34;100.00;96676.78;1031587;28;20092;-68
2021/09/02 00:50:50;;;;;;;18.33;13.52;;;;;;;8.33;100.00;96679.63;1026914;28;20163;-68
2021/09/02 00:51:20;;;;;;;20.75;13.52;;;;;;;8.31;100.00;96681.66;1030919;28;20022;-68
2021/09/02 00:51:51;;;;;;;16.95;12.77;;;;;;;8.29;100.00;96679.28;1027239;28;20055;-68
2021/09/02 00:52:24;;;;;;;17.35;12.52;;;;;;;8.21;100.00;96664.69;1032362;28;20483;-69
2021/09/02 00:52:56;;;;;;;17.80;13.55;;;;;;;8.25;100.00;96672.91;1027561;28;20023;-68
2021/09/02 00:53:29;;;;;;;18.17;13.63;;;;;;;8.22;100.00;96676.75;1023087;29;20283;-68
2021/09/02 00:54:00;;;;;;;20.50;13.98;;;;;;;8.23;100.00;96680.16;1031212;28;20254;-68
2021/09/02 00:54:30;;;;;;;19.70;13.82;;;;;;;8.19;100.00;96674.59;1031252;28;20262;-68
2021/09/02 00:55:02;;;;;;;17.17;13.98;;;;;;;8.21;100.00;96682.19;1027390;28;20034;-68
2021/09/02 00:55:33;;;;;;;17.92;12.90;;;;;;;8.18;100.00;96678.25;1019336;29;20078;-68
2021/09/02 00:56:04;;;;;;;16.13;12.77;;;;;;;8.11;100.00;96664.44;1019122;29;20267;-68
2021/09/02 00:56:34;;;;;;;18.20;13.18;;;;;;;8.15;100.00;96677.84;1027339;28;20472;-68
2021/09/02 00:57:08;;;;;;;17.15;13.95;;;;;;;8.16;100.00;96679.47;1023626;28;20067;-68
2021/09/02 00:57:38;;;;;;;18.83;13.05;;;;;;;8.14;100.00;96671.84;1021678;28;20138;-68
2021/09/02 00:58:09;;;;;;;17.67;13.73;;;;;;;8.13;100.00;96678.09;1027510;28;20316;-68
2021/09/02 00:58:41;;;;;;;17.35;13.32;;;;;;;8.14;100.00;96676.28;1023338;29;20023;-68
2021/09/02 00:59:11;;;;;;;17.23;13.95;;;;;;;8.11;100.00;96672.28;1026956;28;20019;-68
2021/09/02 00:59:42;;;;;;;21.88;13.90;;;;;;;8.11;100.00;96677.50;1027268;28;20259;-67
2021/09/02 01:00:14;;;;;;;18.85;13.75;;;;;;;8.08;100.00;96666.72;1023174;29;20043;-68
2021/09/02 01:00:45;;;;;;;16.20;12.32;;;;;;;8.01;100.00;96666.81;1031114;28;20354;-67
2021/09/02 01:01:16;;;;;;;18.70;12.32;;;;;;;8.09;100.00;96678.78;1027084;28;20258;-68
2021/09/02 01:01:47;;;;;;;15.85;12.82;;;;;;;8.08;100.00;96680.59;1030915;28;20014;-68
2021/09/02 01:02:19;;;;;;;14.73;12.05;;;;;;;8.02;100.00;96668.41;1023451;29;20267;-68
2021/09/02 01:02:49;;;;;;;15.68;12.43;;;;;;;8.06;100.00;96680.00;1022834;28;20030;-68
2021/09/02 01:03:20;;;;;;;17.92;13.38;;;;;;;8.12;100.00;96684.34;1023538;29;20625;-69
2021/09/02 01:03:50;;;;;;;20.95;13.63;;;;;;;8.11;100.00;96679.34;1027224;28;20039;-68
2021/09/02 01:04:22;;;;;;;17.63;12.73;;;;;;;8.13;100.00;96679.91;1025124;28;20374;-68
2021/09/02 01:04:56;;;;;;;18.23;13.82;;;;;;;8.14;100.00;96677.06;1031402;28;20022;-68
2021/09/02 01:05:27;;;;;;;19.13;13.90;;;;;;;8.16;100.00;96685.50;1027298;28;20507;-68
2021/09/02 01:05:57;;;;;;;19.98;14.02;;;;;;;8.09;100.00;96669.13;1029398;28;20261;-68
2021/09/02 01:06:28;;;;;;;21.50;14.55;;;;;;;8.20;100.00;96676.19;1027338;28;20022;-68
2021/09/02 01:06:58;;;;;;;16.42;13.20;;;;;;;8.23;100.00;96673.13;1031344;28;20101;-69
2021/09/02 01:07:29;;;;;;;17.33;13.45;;;;;;;8.21;100.00;96675.16;1035224;28;20018;-68
2021/09/02 01:08:00;;;;;;;17.60;13.63;;;;;;;8.10;100.00;96649.00;1023343;29;20448;-68
2021/09/02 01:08:30;;;;;;;15.45;12.65;;;;;;;8.25;100.00;96670.28;1023241;29;20270;-68
2021/09/02 01:09:01;;;;;;;16.92;13.13;;;;;;;8.27;100.00;96663.81;1035582;28;20434;-68
2021/09/02 01:09:32;;;;;;;16.42;13.63;;;;;;;8.29;100.00;96675.88;1034780;28;20040;-69
2021/09/02 01:10:04;;;;;;;17.52;12.77;;;;;;;8.27;100.00;96673.47;1027050;28;20023;-68
2021/09/02 01:10:35;;;;;;;17.75;13.18;;;;;;;8.29;100.00;96674.06;1027308;28;20266;-68
2021/09/02 01:11:05;;;;;;;16.20;12.48;;;;;;;8.31;100.00;96671.19;1022932;28;20271;-68
2021/09/02 01:11:36;;;;;;;17.20;13.23;;;;;;;8.32;100.00;96673.59;1022600;29;20043;-68
2021/09/02 01:12:24;;;;;;;16.67;12.65;;;;;;;8.34;100.00;96681.22;1027369;28;20078;-68
2021/09/02 01:12:55;;;;;;;13.70;12.02;;;;;;;8.24;100.00;96655.59;1025367;28;20038;-68
2021/09/02 01:13:26;;;;;;;17.17;12.88;;;;;;;8.33;100.00;96674.41;1027434;28;20393;-68
2021/09/02 01:13:56;;;;;;;16.20;12.02;;;;;;;8.34;100.00;96665.53;1019304;29;20071;-68
2021/09/02 01:14:27;;;;;;;15.70;12.98;;;;;;;8.33;100.00;96669.16;1015091;29;20143;-68
2021/09/02 01:14:59;;;;;;;15.45;11.90;;;;;;;8.32;100.00;96664.97;1023348;29;20477;-68
2021/09/02 01:15:30;;;;;;;15.23;12.52;;;;;;;8.33;100.00;96671.78;1031168;28;20027;-68
2021/09/02 01:16:00;;;;;;;16.35;12.38;;;;;;;8.15;100.00;96642.09;1027488;28;20769;-68
2021/09/02 01:16:31;;;;;;;17.90;12.88;;;;;;;8.30;100.00;96669.63;1022934;29;20031;-68
2021/09/02 01:17:01;;;;;;;16.92;12.38;;;;;;;8.28;100.00;96667.22;1027215;28;20049;-68
2021/09/02 01:17:32;;;;;;;24.27;13.38;;;;;;;8.23;100.00;96661.88;1027297;28;20035;-68
2021/09/02 01:18:02;;;;;;;14.50;11.82;;;;;;;8.27;100.00;96669.03;1030304;28;20030;-68
2021/09/02 01:18:32;;;;;;;17.60;12.45;;;;;;;8.22;100.00;96658.47;1035523;28;20682;-68
2021/09/02 01:19:03;;;;;;;16.02;12.52;;;;;;;8.29;100.00;96674.06;1023586;28;20533;-68
2021/09/02 01:19:33;;;;;;;18.90;12.40;;;;;;;8.26;100.00;96670.06;1030894;28;20076;-68
2021/09/02 01:20:06;;;;;;;14.70;11.65;;;;;;;8.26;100.00;96664.81;1028037;28;20027;-68
2021/09/02 01:20:36;;;;;;;16.38;12.18;;;;;;;8.23;100.00;96675.72;1027085;28;20122;-68
2021/09/02 01:21:06;;;;;;;13.82;11.50;;;;;;;8.22;100.00;96668.13;1027262;28;20525;-67
2021/09/02 01:21:37;;;;;;;17.10;13.50;;;;;;;8.18;100.00;96657.31;1018442;29;20003;-69
2021/09/02 01:22:07;;;;;;;18.13;12.30;;;;;;;8.22;100.00;96668.91;1023181;28;20019;-66
2021/09/02 01:22:38;;;;;;;16.77;11.73;;;;;;;8.22;100.00;96668.91;1023111;29;20462;-68
2021/09/02 01:23:08;;;;;;;14.82;11.27;;;;;;;8.23;100.00;96665.28;1027430;28;20026;-68
2021/09/02 01:23:39;;;;;;;15.00;11.68;;;;;;;8.22;100.00;96668.91;1027358;28;20507;-68
2021/09/02 01:24:09;;;;;;;13.98;11.02;;;;;;;8.22;100.00;96662.91;1027539;28;20026;-68
2021/09/02 01:24:40;;;;;;;16.02;12.00;;;;;;;8.22;100.00;96668.91;1023430;28;20528;-69
2021/09/02 01:25:12;;;;;;;20.50;13.38;;;;;;;8.21;100.00;96672.53;1027159;28;20034;-69
2021/09/02 01:25:43;;;;;;;15.05;12.00;;;;;;;8.20;100.00;96667.53;1023701;29;20485;-68
2021/09/02 01:26:17;;;;;;;15.55;11.80;;;;;;;8.21;100.00;96666.50;1027158;28;20332;-68
2021/09/02 01:26:47;;;;;;;14.73;12.13;;;;;;;8.21;100.00;96667.31;1026810;28;20474;-68
2021/09/02 01:27:18;;;;;;;18.17;12.90;;;;;;;8.22;100.00;96662.91;1023250;29;20298;-69
2021/09/02 01:27:50;;;;;;;15.95;12.73;;;;;;;8.19;100.00;96658.13;1027548;28;20417;-68
2021/09/02 01:28:21;;;;;;;16.58;12.90;;;;;;;8.21;100.00;96662.06;1023513;28;20025;-68
2021/09/02 01:28:51;;;;;;;15.40;12.55;;;;;;;8.20;100.00;96670.94;1027375;28;20951;-69
2021/09/02 01:29:23;;;;;;;17.05;12.13;;;;;;;8.23;100.00;96665.28;1019599;29;20078;-68
2021/09/02 01:29:56;;;;;;;15.63;12.18;;;;;;;8.17;100.00;96654.91;1028772;28;20274;-68
2021/09/02 01:30:27;;;;;;;16.73;12.77;;;;;;;8.26;100.00;96669.28;1027347;28;20632;-68
2021/09/02 01:30:58;;;;;;;17.52;13.45;;;;;;;8.23;100.00;96662.66;1027365;28;20271;-69
2021/09/02 01:31:28;;;;;;;18.60;13.25;;;;;;;8.24;100.00;96664.25;1026849;28;20036;-69
2021/09/02 01:31:59;;;;;;;15.65;13.15;;;;;;;8.25;100.00;96660.63;1026493;28;20021;-68
2021/09/02 01:32:30;;;;;;;19.20;13.27;;;;;;;8.24;100.00;96664.25;1023364;29;20423;-69
2021/09/02 01:33:00;;;;;;;15.80;13.10;;;;;;;8.21;100.00;96653.44;1026116;28;20023;-68
2021/09/02 01:33:31;;;;;;;16.00;13.05;;;;;;;8.28;100.00;96661.97;1034047;28;20269;-69
2021/09/02 01:34:01;;;;;;;16.13;13.25;;;;;;;8.27;100.00;96661.19;1031628;28;20475;-69
2021/09/02 01:34:32;;;;;;;18.55;13.98;;;;;;;8.20;100.00;96647.41;1039323;28;20094;-68
2021/09/02 01:35:03;;;;;;;14.90;12.05;;;;;;;8.29;100.00;96662.81;1028653;28;20035;-68
2021/09/02 01:35:34;;;;;;;15.82;13.23;;;;;;;8.29;100.00;96657.56;1031147;28;20535;-68
2021/09/02 01:36:04;;;;;;;16.83;12.45;;;;;;;8.28;100.00;96659.38;1031120;28;20261;-68
2021/09/02 01:36:35;;;;;;;17.88;12.50;;;;;;;8.25;100.00;96655.41;1027370;28;20384;-68
2021/09/02 01:37:05;;;;;;;15.65;12.38;;;;;;;8.19;100.00;96645.84;1022874;28;20030;-68
2021/09/02 01:37:40;;;;;;;14.40;12.65;;;;;;;8.26;100.00;96653.59;1023204;29;20047;-69
2021/09/02 01:38:11;;;;;;;16.48;12.80;;;;;;;8.26;100.00;96657.00;1027659;28;20058;-67
2021/09/02 01:38:42;;;;;;;16.80;12.77;;;;;;;8.23;100.00;96649.59;1033508;28;20488;-68
2021/09/02 01:39:19;;;;;;;16.00;12.73;;;;;;;8.24;100.00;96651.16;1023477;29;20270;-68
2021/09/02 01:39:49;;;;;;;15.13;12.10;;;;;;;8.23;100.00;96654.03;1031164;28;20398;-68
2021/09/02 01:40:22;;;;;;;15.98;12.85;;;;;;;8.23;100.00;96649.59;1029888;28;20263;-68
2021/09/02 01:40:53;;;;;;;17.92;12.57;;;;;;;8.23;100.00;96651.41;1023403;29;20011;-69
2021/09/02 01:41:23;;;;;;;18.30;12.85;;;;;;;8.22;100.00;96653.22;1022382;29;20755;-66
2021/09/02 01:41:54;;;;;;;17.63;13.52;;;;;;;8.21;100.00;96646.38;1025212;28;20026;-68
2021/09/02 01:42:24;;;;;;;17.70;13.30;;;;;;;8.19;100.00;96645.84;1019322;29;20023;-68
2021/09/02 01:42:55;;;;;;;18.23;14.02;;;;;;;8.19;100.00;96645.03;1027136;28;20113;-68
2021/09/02 01:43:25;;;;;;;16.83;13.15;;;;;;;8.18;100.00;96649.47;1021645;28;20055;-68
2021/09/02 01:43:56;;;;;;;18.13;13.65;;;;;;;8.16;100.00;96651.50;1023936;28;20474;-68
2021/09/02 01:44:26;;;;;;;16.88;13.23;;;;;;;8.14;100.00;96645.69;1018021;29;20028;-69
2021/09/02 01:44:57;;;;;;;19.02;13.18;;;;;;;8.15;100.00;96652.53;1027159;28;20023;-68
2021/09/02 01:45:27;;;;;;;19.80;14.43;;;;;;;8.12;100.00;96646.97;1021357;29;20549;-68
2021/09/02 01:45:58;;;;;;;18.58;13.80;;;;;;;8.12;100.00;96655.59;1031073;28;20019;-69
2021/09/02 01:46:28;;;;;;;17.90;14.38;;;;;;;8.12;100.00;96646.97;1022762;29;20067;-68
2021/09/02 01:46:59;;;;;;;22.48;15.18;;;;;;;8.09;100.00;96648.19;1024630;28;20026;-68
2021/09/02 01:47:29;;;;;;;16.98;12.80;;;;;;;8.11;100.00;96651.38;1026754;28;20121;-68
2021/09/02 01:48:00;;;;;;;18.00;13.02;;;;;;;8.10;100.00;96655.00;1026818;28;20520;-68
2021/09/02 01:48:32;;;;;;;15.55;12.60;;;;;;;8.11;100.00;96651.38;1026797;28;20062;-68
2021/09/02 01:49:03;;;;;;;15.18;12.63;;;;;;;8.06;100.00;96645.25;1026943;28;21017;-68
2021/09/02 01:49:33;;;;;;;16.45;12.65;;;;;;;8.09;100.00;96653.44;1030659;28;20404;-68
2021/09/02 01:50:37;;;;;;;18.65;12.60;;;;;;;8.08;100.00;96646.63;1026799;28;20061;-67
2021/09/02 01:51:07;;;;;;;17.10;11.93;;;;;;;8.04;100.00;96645.44;1012282;28;20044;-68
2021/09/02 01:51:38;;;;;;;14.65;11.75;;;;;;;8.05;100.00;96657.53;1026205;28;20278;-68
2021/09/02 01:52:08;;;;;;;13.40;10.90;;;;;;;8.05;100.00;96649.69;1022336;29;20039;-68
2021/09/02 01:52:39;;;;;;;14.70;11.75;;;;;;;7.73;100.00;96596.88;1026839;28;20023;-68
2021/09/02 01:53:13;;;;;;;15.43;11.95;;;;;;;8.03;100.00;96655.13;1023138;29;20475;-67
2021/09/02 01:53:44;;;;;;;13.40;11.50;;;;;;;8.04;100.00;96648.06;1018286;29;20075;-66
2021/09/02 01:54:14;;;;;;;15.60;11.82;;;;;;;8.04;100.00;96650.69;1018988;29;20478;-67
2021/09/02 01:54:45;;;;;;;16.85;12.93;;;;;;;8.03;100.00;96646.47;1022940;29;20030;-67
2021/09/02 01:55:16;;;;;;;15.57;11.80;;;;;;;8.03;100.00;96643.88;1027081;28;20025;-65
2021/09/02 01:55:46;;;;;;;17.27;13.27;;;;;;;8.03;100.00;96649.09;1023039;29;20011;-68
2021/09/02 01:56:17;;;;;;;16.88;12.98;;;;;;;8.04;100.00;96655.91;1023077;28;20027;-68
2021/09/02 01:56:47;;;;;;;15.63;11.80;;;;;;;8.03;100.00;96644.66;1023008;29;20027;-68
2021/09/02 01:57:17;;;;;;;16.17;12.75;;;;;;;7.95;100.00;96636.34;1025004;28;20473;-68
2021/09/02 01:57:48;;;;;;;13.07;11.43;;;;;;;8.02;100.00;96652.72;1030871;28;20430;-68
2021/09/02 01:58:19;;;;;;;16.42;12.70;;;;;;;8.02;100.00;96643.06;1031014;28;20030;-69
2021/09/02 01:58:49;;;;;;;17.48;12.20;;;;;;;8.04;100.00;96645.44;1033425;28;20438;-69
2021/09/02 01:59:19;;;;;;;14.95;12.45;;;;;;;8.03;100.00;96649.09;1031264;28;20027;-69
2021/09/02 01:59:50;;;;;;;14.95;11.63;;;;;;;8.04;100.00;96650.69;1031249;28;20045;-68
2021/09/02 02:00:21;;;;;;;16.33;11.90;;;;;;;8.03;100.00;96647.28;1027090;28;20035;-69
2021/09/02 02:00:51;;;;;;;15.63;12.38;;;;;;;8.03;100.00;96649.09;1029787;28;20041;-68
2021/09/02 02:01:21;;;;;;;14.60;11.30;;;;;;;7.99;100.00;96637.50;1034792;28;20025;-69
2021/09/02 02:01:52;;;;;;;19.05;12.18;;;;;;;7.95;100.00;96631.13;1026967;28;20053;-68
2021/09/02 02:02:22;;;;;;;16.83;12.48;;;;;;;8.02;100.00;96647.50;1024165;28;20035;-68
2021/09/02 02:02:53;;;;;;;17.10;11.57;;;;;;;7.95;100.00;96637.16;1022898;29;20453;-68
2021/09/02 02:03:23;;;;;;;15.85;11.95;;;;;;;8.03;100.00;96649.88;1023000;28;20102;-67
2021/09/02 02:03:54;;;;;;;15.55;11.50;;;;;;;8.01;100.00;96649.34;1025718;28;20022;-68
2021/09/02 02:04:24;;;;;;;14.35;11.63;;;;;;;8.01;100.00;96648.50;1022728;28;20027;-68
2021/09/02 02:04:54;;;;;;;16.13;12.05;;;;;;;7.95;100.00;96645.00;1027025;28;20026;-68
2021/09/02 02:05:25;;;;;;;14.77;11.93;;;;;;;8.00;100.00;96647.72;1030996;28;20034;-68
2021/09/02 02:05:55;;;;;;;15.07;11.95;;;;;;;7.99;100.00;96647.94;1030412;28;20026;-65
2021/09/02 02:06:26;;;;;;;12.75;11.23;;;;;;;7.99;100.00;96645.34;1034744;28;20354;-68
2021/09/02 02:06:56;;;;;;;15.30;11.90;;;;;;;7.98;100.00;96648.94;1025174;28;20023;-68
2021/09/02 02:07:27;;;;;;;15.52;12.48;;;;;;;8.00;100.00;96644.31;1026403;28;20027;-68
2021/09/02 02:07:57;;;;;;;17.17;14.15;;;;;;;7.99;100.00;96643.53;1023103;29;20122;-68
2021/09/02 02:08:28;;;;;;;15.70;12.93;;;;;;;8.01;100.00;96645.88;1026697;28;20413;-68
2021/09/02 02:08:58;;;;;;;17.52;13.38;;;;;;;8.01;100.00;96648.50;1022375;28;20015;-65
2021/09/02 02:09:29;;;;;;;19.55;13.90;;;;;;;8.00;100.00;96644.31;1026933;28;20030;-68
2021/09/02 02:09:59;;;;;;;17.05;12.73;;;;;;;7.92;100.00;96632.38;1027007;28;20038;-68
2021/09/02 02:10:31;;;;;;;17.17;13.65;;;;;;;8.00;100.00;96644.31;1022869;28;20425;-68
2021/09/02 02:11:02;;;;;;;16.50;12.65;;;;;;;8.00;100.00;96644.31;1026955;28;20026;-66
2021/09/02 02:11:32;;;;;;;15.75;12.27;;;;;;;8.00;100.00;96646.94;1029966;28;20724;-68
2021/09/02 02:12:03;;;;;;;16.88;12.93;;;;;;;8.00;100.00;96641.69;1031080;28;20600;-68
2021/09/02 02:12:33;;;;;;;18.35;12.73;;;;;;;7.93;100.00;96633.94;1022887;29;20050;-68
2021/09/02 02:13:04;;;;;;;17.10;13.10;;;;;;;8.01;100.00;96649.34;1023440;28;20063;-67
2021/09/02 02:13:34;;;;;;;16.42;12.27;;;;;;;8.01;100.00;96648.50;1023348;28;20023;-68
2021/09/02 02:14:05;;;;;;;16.08;12.65;;;;;;;7.99;100.00;96647.94;1030926;28;20026;-68
2021/09/02 02:14:35;;;;;;;15.73;11.98;;;;;;;7.99;100.00;96647.94;1035575;28;20057;-68
2021/09/02 02:15:06;;;;;;;18.05;13.88;;;;;;;7.93;100.00;96643.59;1034956;28;20420;-68
2021/09/02 02:15:37;;;;;;;17.38;13.63;;;;;;;7.99;100.00;96647.94;1022882;29;20019;-68
2021/09/02 02:16:07;;;;;;;18.40;11.63;;;;;;;7.95;100.00;96637.16;1018761;29;20036;-66
2021/09/02 02:16:38;;;;;;;15.82;12.25;;;;;;;7.87;100.00;96623.59;1022845;29;20027;-65
2021/09/02 02:17:08;;;;;;;16.45;12.38;;;;;;;7.95;100.00;96647.59;1022796;28;20027;-68
2021/09/02 02:17:39;;;;;;;16.48;13.40;;;;;;;7.95;100.00;96638.97;1027104;28;20034;-68
2021/09/02 02:18:09;;;;;;;16.95;12.63;;;;;;;7.94;100.00;96650.44;1029171;28;20038;-68
2021/09/02 02:18:40;;;;;;;17.20;13.38;;;;;;;7.93;100.00;96641.00;1022778;29;20592;-68
2021/09/02 02:19:10;;;;;;;15.60;12.23;;;;;;;7.92;100.00;96642.03;1019137;28;20038;-68
2021/09/02 02:19:41;;;;;;;16.38;12.82;;;;;;;7.93;100.00;96643.59;1026342;28;20057;-68
2021/09/02 02:20:11;;;;;;;15.23;12.93;;;;;;;7.93;100.00;96643.59;1026927;28;20037;-68
2021/09/02 02:20:42;;;;;;;18.98;13.38;;;;;;;7.92;100.00;96644.63;1031039;28;20033;-68
2021/09/02 02:21:12;;;;;;;18.23;13.45;;;;;;;7.90;100.00;96639.63;1029974;28;20026;-68
2021/09/02 02:21:43;;;;;;;16.10;13.30;;;;;;;7.91;100.00;96643.03;1026342;28;20030;-68
2021/09/02 02:22:13;;;;;;;15.70;13.30;;;;;;;7.88;100.00;96641.69;1030819;28;20034;-68
2021/09/02 02:22:44;;;;;;;19.45;13.38;;;;;;;7.85;100.00;96638.72;1026700;28;20026;-67